sensor_id;sensor_type;location;lat;lon;timestamp;temperature;humidity
1091;DHT22;534;48.704;9.122;2023-04-25T04:02:35;10.50;76.70
1091;DHT22;534;48.704;9.122;2023-04-25T04:05:03;10.60;76.60
1091;DHT22;534;48.704;9.122;2023-04-25T04:07:30;10.60;76.30
1091;DHT22;534;48.704;9.122;2023-04-25T04:09:58;10.40;76.20
1091;DHT22;534;48.704;9.122;2023-04-25T04:12:24;10.40;76.70
1091;DHT22;534;48.704;9.122;2023-04-25T04:14:51;10.10;76.80
1091;DHT22;534;48.704;9.122;2023-04-25T04:17:18;9.80;78.00
1091;DHT22;534;48.704;9.122;2023-04-25T04:19:46;9.70;78.50
1091;DHT22;534;48.704;9.122;2023-04-25T04:22:12;9.70;78.60
1091;DHT22;534;48.704;9.122;2023-04-25T04:24:39;9.50;79.00
1091;DHT22;534;48.704;9.122;2023-04-25T04:27:09;9.30;79.80
1091;DHT22;534;48.704;9.122;2023-04-25T04:29:35;9.30;80.00
1091;DHT22;534;48.704;9.122;2023-04-25T04:32:02;9.40;79.90
1091;DHT22;534;48.704;9.122;2023-04-25T04:34:30;9.60;79.40
1091;DHT22;534;48.704;9.122;2023-04-25T04:36:58;9.80;79.10
1091;DHT22;534;48.704;9.122;2023-04-25T04:39:25;9.90;78.50
1091;DHT22;534;48.704;9.122;2023-04-25T04:41:52;10.00;77.90
1091;DHT22;534;48.704;9.122;2023-04-25T04:44:19;10.00;78.00
1091;DHT22;534;48.704;9.122;2023-04-25T04:46:45;10.00;77.80
1091;DHT22;534;48.704;9.122;2023-04-25T04:49:12;10.00;77.80
1091;DHT22;534;48.704;9.122;2023-04-25T04:51:40;10.10;78.00
1091;DHT22;534;48.704;9.122;2023-04-25T04:54:11;10.30;77.80
1091;DHT22;534;48.704;9.122;2023-04-25T04:56:37;10.30;77.30
1091;DHT22;534;48.704;9.122;2023-04-25T04:59:04;10.10;77.60
1091;DHT22;534;48.704;9.122;2023-04-25T05:01:32;10.10;78.10
1091;DHT22;534;48.704;9.122;2023-04-25T05:04:00;10.20;78.00
1091;DHT22;534;48.704;9.122;2023-04-25T05:06:28;10.00;77.90
1091;DHT22;534;48.704;9.122;2023-04-25T05:08:55;10.10;78.30
1091;DHT22;534;48.704;9.122;2023-04-25T05:11:24;10.00;78.20
1091;DHT22;534;48.704;9.122;2023-04-25T05:13:51;10.00;78.60
1091;DHT22;534;48.704;9.122;2023-04-25T05:16:18;10.10;78.60
1091;DHT22;534;48.704;9.122;2023-04-25T05:18:45;10.30;78.40
1091;DHT22;534;48.704;9.122;2023-04-25T05:21:12;10.30;78.10
1091;DHT22;534;48.704;9.122;2023-04-25T05:23:38;10.20;77.90
1091;DHT22;534;48.704;9.122;2023-04-25T05:26:05;10.00;78.30
1091;DHT22;534;48.704;9.122;2023-04-25T05:28:40;10.00;78.90
1091;DHT22;534;48.704;9.122;2023-04-25T05:31:07;9.90;79.20
1091;DHT22;534;48.704;9.122;2023-04-25T05:33:33;9.90;79.40
1091;DHT22;534;48.704;9.122;2023-04-25T05:36:00;9.90;79.50
1091;DHT22;534;48.704;9.122;2023-04-25T05:38:27;10.10;79.70
1091;DHT22;534;48.704;9.122;2023-04-25T05:40:53;10.00;79.40
1091;DHT22;534;48.704;9.122;2023-04-25T05:43:20;10.00;79.80
1091;DHT22;534;48.704;9.122;2023-04-25T05:45:48;10.20;79.80
1091;DHT22;534;48.704;9.122;2023-04-25T05:48:15;10.30;79.20
1091;DHT22;534;48.704;9.122;2023-04-25T05:50:42;10.30;79.50
1091;DHT22;534;48.704;9.122;2023-04-25T05:53:08;10.40;79.40
1091;DHT22;534;48.704;9.122;2023-04-25T05:55:35;10.40;79.80
1091;DHT22;534;48.704;9.122;2023-04-25T05:58:02;10.60;79.40
1091;DHT22;534;48.704;9.122;2023-04-25T06:00:29;10.50;78.80
1091;DHT22;534;48.704;9.122;2023-04-25T06:02:57;10.60;78.70
1091;DHT22;534;48.704;9.122;2023-04-25T06:05:23;10.80;78.60
1091;DHT22;534;48.704;9.122;2023-04-25T06:07:50;10.70;78.20
1091;DHT22;534;48.704;9.122;2023-04-25T06:10:17;10.80;77.80
1091;DHT22;534;48.704;9.122;2023-04-25T06:12:43;10.90;78.00
1091;DHT22;534;48.704;9.122;2023-04-25T06:15:10;11.00;77.50
1091;DHT22;534;48.704;9.122;2023-04-25T06:17:37;11.00;76.90
1091;DHT22;534;48.704;9.122;2023-04-25T06:20:07;11.10;76.60
1091;DHT22;534;48.704;9.122;2023-04-25T06:22:34;11.10;76.50
1091;DHT22;534;48.704;9.122;2023-04-25T06:25:01;11.30;76.10
1091;DHT22;534;48.704;9.122;2023-04-25T06:27:29;11.30;75.80
1091;DHT22;534;48.704;9.122;2023-04-25T06:29:56;11.30;75.30
1091;DHT22;534;48.704;9.122;2023-04-25T06:32:23;11.30;75.30
1091;DHT22;534;48.704;9.122;2023-04-25T06:34:49;11.40;75.10
1091;DHT22;534;48.704;9.122;2023-04-25T06:37:17;11.40;75.00
1091;DHT22;534;48.704;9.122;2023-04-25T06:39:44;11.30;74.90
1091;DHT22;534;48.704;9.122;2023-04-25T06:42:11;11.40;74.90
1091;DHT22;534;48.704;9.122;2023-04-25T06:44:37;11.50;74.90
1091;DHT22;534;48.704;9.122;2023-04-25T06:47:04;11.50;74.30
1091;DHT22;534;48.704;9.122;2023-04-25T06:49:31;11.50;74.20
1091;DHT22;534;48.704;9.122;2023-04-25T06:51:57;11.50;74.00
1091;DHT22;534;48.704;9.122;2023-04-25T06:54:25;11.50;73.90
1091;DHT22;534;48.704;9.122;2023-04-25T06:56:52;11.40;73.40
1091;DHT22;534;48.704;9.122;2023-04-25T06:59:19;11.40;73.40
1091;DHT22;534;48.704;9.122;2023-04-25T07:01:46;11.30;73.30
1091;DHT22;534;48.704;9.122;2023-04-25T07:04:12;11.30;73.60
1091;DHT22;534;48.704;9.122;2023-04-25T07:06:39;11.20;73.30
1091;DHT22;534;48.704;9.122;2023-04-25T07:09:08;11.10;73.40
1091;DHT22;534;48.704;9.122;2023-04-25T07:11:36;11.00;74.00
1091;DHT22;534;48.704;9.122;2023-04-25T07:14:03;11.00;74.40
1091;DHT22;534;48.704;9.122;2023-04-25T07:16:30;11.00;74.50
1091;DHT22;534;48.704;9.122;2023-04-25T07:18:56;11.00;74.80
1091;DHT22;534;48.704;9.122;2023-04-25T07:21:24;11.10;74.80
1091;DHT22;534;48.704;9.122;2023-04-25T07:23:51;11.20;75.00
1091;DHT22;534;48.704;9.122;2023-04-25T07:26:18;11.20;75.10
1091;DHT22;534;48.704;9.122;2023-04-25T07:28:46;11.10;75.50
1091;DHT22;534;48.704;9.122;2023-04-25T07:31:16;11.10;76.00
1091;DHT22;534;48.704;9.122;2023-04-25T07:33:43;11.00;76.00
1091;DHT22;534;48.704;9.122;2023-04-25T07:36:10;11.00;76.20
1091;DHT22;534;48.704;9.122;2023-04-25T07:38:37;11.10;76.30
1091;DHT22;534;48.704;9.122;2023-04-25T07:41:04;11.20;76.80
1091;DHT22;534;48.704;9.122;2023-04-25T07:43:31;11.10;77.00
1091;DHT22;534;48.704;9.122;2023-04-25T07:45:59;11.10;77.00
1091;DHT22;534;48.704;9.122;2023-04-25T07:48:25;11.10;77.40
1091;DHT22;534;48.704;9.122;2023-04-25T07:50:52;11.20;77.50
1091;DHT22;534;48.704;9.122;2023-04-25T07:53:19;11.10;77.50
1091;DHT22;534;48.704;9.122;2023-04-25T07:55:45;11.20;77.60
1091;DHT22;534;48.704;9.122;2023-04-25T07:58:12;11.10;77.70
1091;DHT22;534;48.704;9.122;2023-04-25T08:00:40;11.10;78.00
1091;DHT22;534;48.704;9.122;2023-04-25T08:03:09;10.90;78.70
1091;DHT22;534;48.704;9.122;2023-04-25T08:05:36;10.80;79.00
1091;DHT22;534;48.704;9.122;2023-04-25T08:08:03;10.70;79.10
1091;DHT22;534;48.704;9.122;2023-04-25T08:10:31;10.70;79.60
1091;DHT22;534;48.704;9.122;2023-04-25T08:12:58;10.80;79.90
1091;DHT22;534;48.704;9.122;2023-04-25T08:15:25;10.80;80.00
1091;DHT22;534;48.704;9.122;2023-04-25T08:17:51;10.80;79.80
1091;DHT22;534;48.704;9.122;2023-04-25T08:20:20;10.70;79.70
1091;DHT22;534;48.704;9.122;2023-04-25T08:22:46;10.60;80.00
1091;DHT22;534;48.704;9.122;2023-04-25T08:25:14;10.50;80.30
1091;DHT22;534;48.704;9.122;2023-04-25T08:27:40;10.30;81.40
1091;DHT22;534;48.704;9.122;2023-04-25T08:30:08;10.10;81.40
1091;DHT22;534;48.704;9.122;2023-04-25T08:32:35;9.90;82.40
1091;DHT22;534;48.704;9.122;2023-04-25T08:35:04;9.90;82.90
1091;DHT22;534;48.704;9.122;2023-04-25T08:37:32;9.90;82.60
1091;DHT22;534;48.704;9.122;2023-04-25T08:39:59;9.80;82.70
1091;DHT22;534;48.704;9.122;2023-04-25T08:42:27;9.90;83.20
1091;DHT22;534;48.704;9.122;2023-04-25T08:44:54;9.60;83.20
1091;DHT22;534;48.704;9.122;2023-04-25T08:47:22;9.70;84.20
1091;DHT22;534;48.704;9.122;2023-04-25T08:49:49;9.90;84.20
1091;DHT22;534;48.704;9.122;2023-04-25T08:52:21;9.70;82.80
1091;DHT22;534;48.704;9.122;2023-04-25T08:54:51;9.50;83.40
1091;DHT22;534;48.704;9.122;2023-04-25T08:57:19;9.40;84.20
1091;DHT22;534;48.704;9.122;2023-04-25T08:59:47;9.30;85.20
1091;DHT22;534;48.704;9.122;2023-04-25T09:02:15;9.30;85.80
1091;DHT22;534;48.704;9.122;2023-04-25T09:04:43;9.40;85.60
1091;DHT22;534;48.704;9.122;2023-04-25T09:07:10;9.50;85.70
1091;DHT22;534;48.704;9.122;2023-04-25T09:09:37;9.50;85.70
1091;DHT22;534;48.704;9.122;2023-04-25T09:12:06;9.60;85.20
1091;DHT22;534;48.704;9.122;2023-04-25T09:14:33;9.70;84.70
1091;DHT22;534;48.704;9.122;2023-04-25T09:17:01;9.70;84.70
1091;DHT22;534;48.704;9.122;2023-04-25T09:19:30;9.70;84.40
1091;DHT22;534;48.704;9.122;2023-04-25T09:21:58;9.80;84.30
1091;DHT22;534;48.704;9.122;2023-04-25T09:24:39;9.80;84.20
1091;DHT22;534;48.704;9.122;2023-04-25T09:27:10;9.70;83.70
1091;DHT22;534;48.704;9.122;2023-04-25T09:29:39;9.50;84.50
1091;DHT22;534;48.704;9.122;2023-04-25T09:32:12;9.50;85.20
1091;DHT22;534;48.704;9.122;2023-04-25T09:34:39;9.50;84.50
1091;DHT22;534;48.704;9.122;2023-04-25T09:37:08;9.60;86.50
1091;DHT22;534;48.704;9.122;2023-04-25T09:39:34;9.70;85.10
1091;DHT22;534;48.704;9.122;2023-04-25T09:42:02;9.80;84.80
1091;DHT22;534;48.704;9.122;2023-04-25T09:44:31;9.90;84.20
1091;DHT22;534;48.704;9.122;2023-04-25T09:46:57;9.70;83.50
1091;DHT22;534;48.704;9.122;2023-04-25T09:49:25;9.90;84.00
1091;DHT22;534;48.704;9.122;2023-04-25T09:51:55;9.70;82.20
1091;DHT22;534;48.704;9.122;2023-04-25T09:54:23;9.70;82.60
1091;DHT22;534;48.704;9.122;2023-04-25T09:56:51;9.70;83.10
1091;DHT22;534;48.704;9.122;2023-04-25T09:59:20;9.50;83.60
1091;DHT22;534;48.704;9.122;2023-04-25T10:01:49;9.40;83.80
1091;DHT22;534;48.704;9.122;2023-04-25T10:04:19;9.10;82.70
1091;DHT22;534;48.704;9.122;2023-04-25T10:06:49;8.80;84.20
1091;DHT22;534;48.704;9.122;2023-04-25T10:09:19;8.50;84.40
1091;DHT22;534;48.704;9.122;2023-04-25T10:11:47;8.40;85.70
1091;DHT22;534;48.704;9.122;2023-04-25T10:14:14;8.40;85.80
1091;DHT22;534;48.704;9.122;2023-04-25T10:16:42;8.50;86.00
1091;DHT22;534;48.704;9.122;2023-04-25T10:19:11;8.50;85.70
1091;DHT22;534;48.704;9.122;2023-04-25T10:21:44;8.30;85.70
1091;DHT22;534;48.704;9.122;2023-04-25T10:24:12;8.30;86.10
1091;DHT22;534;48.704;9.122;2023-04-25T10:26:40;8.50;85.60
1091;DHT22;534;48.704;9.122;2023-04-25T10:29:07;8.50;84.50
1091;DHT22;534;48.704;9.122;2023-04-25T10:31:33;8.70;85.00
1091;DHT22;534;48.704;9.122;2023-04-25T10:34:12;8.60;85.00
1091;DHT22;534;48.704;9.122;2023-04-25T10:36:39;8.60;83.70
1091;DHT22;534;48.704;9.122;2023-04-25T10:39:06;8.50;84.90
1091;DHT22;534;48.704;9.122;2023-04-25T10:41:46;8.50;85.40
1091;DHT22;534;48.704;9.122;2023-04-25T10:44:14;8.50;86.10
1091;DHT22;534;48.704;9.122;2023-04-25T10:46:40;8.50;85.00
1091;DHT22;534;48.704;9.122;2023-04-25T10:49:08;8.50;86.00
1091;DHT22;534;48.704;9.122;2023-04-25T10:51:36;8.50;86.00
1091;DHT22;534;48.704;9.122;2023-04-25T10:54:04;8.70;86.20
1091;DHT22;534;48.704;9.122;2023-04-25T10:56:32;8.90;86.20
1091;DHT22;534;48.704;9.122;2023-04-25T10:59:06;9.00;84.90
1091;DHT22;534;48.704;9.122;2023-04-25T11:01:36;9.20;84.70
1091;DHT22;534;48.704;9.122;2023-04-25T11:04:04;9.30;84.00
1091;DHT22;534;48.704;9.122;2023-04-25T11:06:41;9.20;83.90
1091;DHT22;534;48.704;9.122;2023-04-25T11:09:11;9.40;84.00
1091;DHT22;534;48.704;9.122;2023-04-25T11:11:39;9.30;83.90
1091;DHT22;534;48.704;9.122;2023-04-25T11:14:06;9.50;84.10
1091;DHT22;534;48.704;9.122;2023-04-25T11:16:32;9.60;83.50
1091;DHT22;534;48.704;9.122;2023-04-25T11:19:01;9.60;83.50
1091;DHT22;534;48.704;9.122;2023-04-25T11:21:29;9.70;83.50
1091;DHT22;534;48.704;9.122;2023-04-25T11:23:59;9.70;83.50
1091;DHT22;534;48.704;9.122;2023-04-25T11:26:26;9.80;82.70
1091;DHT22;534;48.704;9.122;2023-04-25T11:28:57;9.90;82.10
1091;DHT22;534;48.704;9.122;2023-04-25T11:31:25;9.90;81.50
1091;DHT22;534;48.704;9.122;2023-04-25T11:33:53;9.90;81.00
1091;DHT22;534;48.704;9.122;2023-04-25T11:36:20;10.00;80.60
1091;DHT22;534;48.704;9.122;2023-04-25T11:38:46;10.00;80.90
1091;DHT22;534;48.704;9.122;2023-04-25T11:41:14;10.10;80.80
1091;DHT22;534;48.704;9.122;2023-04-25T11:43:43;10.10;80.90
1091;DHT22;534;48.704;9.122;2023-04-25T11:46:09;10.30;81.20
1091;DHT22;534;48.704;9.122;2023-04-25T11:48:38;10.50;80.50
1091;DHT22;534;48.704;9.122;2023-04-25T11:51:04;10.80;80.70
1091;DHT22;534;48.704;9.122;2023-04-25T11:53:31;11.00;79.90
1091;DHT22;534;48.704;9.122;2023-04-25T11:55:58;11.20;79.20
1091;DHT22;534;48.704;9.122;2023-04-25T11:58:27;11.30;78.20
1091;DHT22;534;48.704;9.122;2023-04-25T12:00:54;11.40;78.60
1091;DHT22;534;48.704;9.122;2023-04-25T12:03:23;11.50;77.10
1091;DHT22;534;48.704;9.122;2023-04-25T12:05:52;11.50;78.00
1091;DHT22;534;48.704;9.122;2023-04-25T12:08:19;11.60;77.70
1091;DHT22;534;48.704;9.122;2023-04-25T12:10:46;11.70;76.70
1091;DHT22;534;48.704;9.122;2023-04-25T12:13:21;11.50;76.60
1091;DHT22;534;48.704;9.122;2023-04-25T12:15:49;11.60;77.10
1091;DHT22;534;48.704;9.122;2023-04-25T12:18:19;11.70;77.00
1091;DHT22;534;48.704;9.122;2023-04-25T12:20:46;11.70;75.40
1091;DHT22;534;48.704;9.122;2023-04-25T12:23:12;11.80;75.80
1091;DHT22;534;48.704;9.122;2023-04-25T12:25:41;11.60;76.40
1091;DHT22;534;48.704;9.122;2023-04-25T12:28:11;11.50;76.60
1091;DHT22;534;48.704;9.122;2023-04-25T12:30:56;11.60;77.30
1091;DHT22;534;48.704;9.122;2023-04-25T12:33:24;11.40;76.80
1091;DHT22;534;48.704;9.122;2023-04-25T12:35:52;11.30;76.90
1091;DHT22;534;48.704;9.122;2023-04-25T12:38:23;11.50;78.00
1091;DHT22;534;48.704;9.122;2023-04-25T12:40:50;11.40;76.10
1091;DHT22;534;48.704;9.122;2023-04-25T12:43:17;11.30;74.50
1091;DHT22;534;48.704;9.122;2023-04-25T12:45:44;11.30;75.00
1091;DHT22;534;48.704;9.122;2023-04-25T12:48:12;11.20;74.60
1091;DHT22;534;48.704;9.122;2023-04-25T12:50:39;11.30;74.80
1091;DHT22;534;48.704;9.122;2023-04-25T12:53:07;11.40;75.50
1091;DHT22;534;48.704;9.122;2023-04-25T12:55:33;11.60;75.70
1091;DHT22;534;48.704;9.122;2023-04-25T12:58:00;11.70;75.00
1091;DHT22;534;48.704;9.122;2023-04-25T13:00:28;11.80;74.60
1091;DHT22;534;48.704;9.122;2023-04-25T13:02:55;11.50;74.10
1091;DHT22;534;48.704;9.122;2023-04-25T13:05:23;11.30;75.30
1091;DHT22;534;48.704;9.122;2023-04-25T13:07:49;11.00;77.20
1091;DHT22;534;48.704;9.122;2023-04-25T13:10:16;10.90;76.90
1091;DHT22;534;48.704;9.122;2023-04-25T13:12:43;10.70;77.30
1091;DHT22;534;48.704;9.122;2023-04-25T13:15:11;11.00;79.20
1091;DHT22;534;48.704;9.122;2023-04-25T13:17:38;11.30;78.80
1091;DHT22;534;48.704;9.122;2023-04-25T13:20:06;11.50;78.20
1091;DHT22;534;48.704;9.122;2023-04-25T13:22:37;11.70;77.40
1091;DHT22;534;48.704;9.122;2023-04-25T13:25:05;11.50;75.80
1091;DHT22;534;48.704;9.122;2023-04-25T13:27:33;11.50;77.00
1091;DHT22;534;48.704;9.122;2023-04-25T13:30:02;11.70;76.60
1091;DHT22;534;48.704;9.122;2023-04-25T13:32:32;11.80;76.00
1091;DHT22;534;48.704;9.122;2023-04-25T13:34:59;11.70;75.70
1091;DHT22;534;48.704;9.122;2023-04-25T13:37:26;11.70;77.20
1091;DHT22;534;48.704;9.122;2023-04-25T13:39:54;11.80;78.10
1091;DHT22;534;48.704;9.122;2023-04-25T13:42:22;11.80;76.90
1091;DHT22;534;48.704;9.122;2023-04-25T13:44:49;12.00;78.10
1091;DHT22;534;48.704;9.122;2023-04-25T13:47:16;11.60;77.30
1091;DHT22;534;48.704;9.122;2023-04-25T13:49:42;11.70;79.20
1091;DHT22;534;48.704;9.122;2023-04-25T13:52:09;12.00;77.00
1091;DHT22;534;48.704;9.122;2023-04-25T13:54:36;12.20;75.00
1091;DHT22;534;48.704;9.122;2023-04-25T13:57:04;12.30;75.00
1091;DHT22;534;48.704;9.122;2023-04-25T13:59:31;12.30;73.40
1091;DHT22;534;48.704;9.122;2023-04-25T14:01:58;12.40;73.50
1091;DHT22;534;48.704;9.122;2023-04-25T14:04:24;12.50;73.60
1091;DHT22;534;48.704;9.122;2023-04-25T14:06:51;12.50;74.70
1091;DHT22;534;48.704;9.122;2023-04-25T14:09:19;12.20;74.40
1091;DHT22;534;48.704;9.122;2023-04-25T14:11:46;12.20;75.30
1091;DHT22;534;48.704;9.122;2023-04-25T14:14:15;12.30;76.80
1091;DHT22;534;48.704;9.122;2023-04-25T14:16:42;12.10;73.90
1091;DHT22;534;48.704;9.122;2023-04-25T14:19:08;12.10;74.80
1091;DHT22;534;48.704;9.122;2023-04-25T14:21:35;12.60;74.90
1091;DHT22;534;48.704;9.122;2023-04-25T14:24:02;13.00;72.80
1091;DHT22;534;48.704;9.122;2023-04-25T14:26:30;13.20;72.40
1091;DHT22;534;48.704;9.122;2023-04-25T14:28:57;13.20;71.80
1091;DHT22;534;48.704;9.122;2023-04-25T14:31:25;13.30;70.50
1091;DHT22;534;48.704;9.122;2023-04-25T14:33:51;13.50;69.90
1091;DHT22;534;48.704;9.122;2023-04-25T14:36:18;13.80;70.50
1091;DHT22;534;48.704;9.122;2023-04-25T14:38:45;14.20;70.40
1091;DHT22;534;48.704;9.122;2023-04-25T14:41:12;14.40;67.70
1091;DHT22;534;48.704;9.122;2023-04-25T14:43:39;14.30;66.90
1091;DHT22;534;48.704;9.122;2023-04-25T14:46:06;14.50;66.30
1091;DHT22;534;48.704;9.122;2023-04-25T14:48:34;14.50;66.00
1091;DHT22;534;48.704;9.122;2023-04-25T14:51:01;14.60;68.40
1091;DHT22;534;48.704;9.122;2023-04-25T14:53:28;15.10;65.70
1091;DHT22;534;48.704;9.122;2023-04-25T14:55:55;15.20;66.00
1091;DHT22;534;48.704;9.122;2023-04-25T14:58:22;15.30;65.30
1091;DHT22;534;48.704;9.122;2023-04-25T15:00:48;15.50;62.90
1091;DHT22;534;48.704;9.122;2023-04-25T15:03:16;15.50;64.90
1091;DHT22;534;48.704;9.122;2023-04-25T15:05:44;15.50;64.30
1091;DHT22;534;48.704;9.122;2023-04-25T15:08:10;15.80;62.50
1091;DHT22;534;48.704;9.122;2023-04-25T15:10:37;15.70;63.10
1091;DHT22;534;48.704;9.122;2023-04-25T15:13:04;15.80;64.10
1091;DHT22;534;48.704;9.122;2023-04-25T15:15:31;16.20;62.40
1091;DHT22;534;48.704;9.122;2023-04-25T15:17:57;16.30;61.70
1091;DHT22;534;48.704;9.122;2023-04-25T15:20:24;16.70;61.40
1091;DHT22;534;48.704;9.122;2023-04-25T15:22:52;17.50;59.30
1091;DHT22;534;48.704;9.122;2023-04-25T15:25:19;17.40;57.50
1091;DHT22;534;48.704;9.122;2023-04-25T15:27:46;16.80;57.30
1091;DHT22;534;48.704;9.122;2023-04-25T15:30:15;16.40;58.70
1091;DHT22;534;48.704;9.122;2023-04-25T15:32:42;16.00;60.90
1091;DHT22;534;48.704;9.122;2023-04-25T15:35:09;15.80;60.90
1091;DHT22;534;48.704;9.122;2023-04-25T15:37:37;15.60;61.50
1091;DHT22;534;48.704;9.122;2023-04-25T15:40:07;15.80;62.10
1091;DHT22;534;48.704;9.122;2023-04-25T15:42:35;15.90;61.60
1091;DHT22;534;48.704;9.122;2023-04-25T15:45:02;16.00;61.30
1091;DHT22;534;48.704;9.122;2023-04-25T15:47:29;15.80;61.00
1091;DHT22;534;48.704;9.122;2023-04-25T15:49:56;15.60;62.00
1091;DHT22;534;48.704;9.122;2023-04-25T15:52:23;15.40;61.80
1091;DHT22;534;48.704;9.122;2023-04-25T15:54:50;15.20;61.50
1091;DHT22;534;48.704;9.122;2023-04-25T15:57:18;15.10;62.70
1091;DHT22;534;48.704;9.122;2023-04-25T15:59:45;15.00;63.50
1091;DHT22;534;48.704;9.122;2023-04-25T16:02:12;14.90;62.60
1091;DHT22;534;48.704;9.122;2023-04-25T16:04:39;14.60;63.70
1091;DHT22;534;48.704;9.122;2023-04-25T16:07:06;14.60;64.20
1091;DHT22;534;48.704;9.122;2023-04-25T16:09:33;14.50;65.40
1091;DHT22;534;48.704;9.122;2023-04-25T16:12:00;14.40;63.60
1091;DHT22;534;48.704;9.122;2023-04-25T16:14:28;14.30;64.00
1091;DHT22;534;48.704;9.122;2023-04-25T16:16:56;14.30;64.20
1091;DHT22;534;48.704;9.122;2023-04-25T16:19:22;14.10;65.10
1091;DHT22;534;48.704;9.122;2023-04-25T16:21:49;14.10;66.30
1091;DHT22;534;48.704;9.122;2023-04-25T16:24:16;14.00;64.80
1091;DHT22;534;48.704;9.122;2023-04-25T16:26:43;13.90;64.50
1091;DHT22;534;48.704;9.122;2023-04-25T16:29:10;13.70;65.90
1091;DHT22;534;48.704;9.122;2023-04-25T16:31:40;13.60;66.00
1091;DHT22;534;48.704;9.122;2023-04-25T16:34:07;13.60;66.60
1091;DHT22;534;48.704;9.122;2023-04-25T16:36:34;13.60;66.80
1091;DHT22;534;48.704;9.122;2023-04-25T16:39:01;13.50;66.40
1091;DHT22;534;48.704;9.122;2023-04-25T16:41:27;13.40;66.40
1091;DHT22;534;48.704;9.122;2023-04-25T16:43:54;13.40;66.40
1091;DHT22;534;48.704;9.122;2023-04-25T16:46:21;13.30;66.00
1091;DHT22;534;48.704;9.122;2023-04-25T16:48:49;13.30;66.40
1091;DHT22;534;48.704;9.122;2023-04-25T16:51:16;13.20;66.50
1091;DHT22;534;48.704;9.122;2023-04-25T16:53:44;13.30;67.10
1091;DHT22;534;48.704;9.122;2023-04-25T16:56:11;13.30;67.60
1091;DHT22;534;48.704;9.122;2023-04-25T16:58:38;13.40;67.60
1091;DHT22;534;48.704;9.122;2023-04-25T17:01:05;13.30;67.70
1091;DHT22;534;48.704;9.122;2023-04-25T17:03:31;13.20;68.20
1091;DHT22;534;48.704;9.122;2023-04-25T17:05:59;13.20;68.20
1091;DHT22;534;48.704;9.122;2023-04-25T17:08:26;13.20;68.30
1091;DHT22;534;48.704;9.122;2023-04-25T17:10:54;13.00;68.60
1091;DHT22;534;48.704;9.122;2023-04-25T17:13:21;12.90;68.90
1091;DHT22;534;48.704;9.122;2023-04-25T17:15:48;12.90;69.10
1091;DHT22;534;48.704;9.122;2023-04-25T17:18:15;12.90;69.00
1091;DHT22;534;48.704;9.122;2023-04-25T17:20:42;12.80;69.20
1091;DHT22;534;48.704;9.122;2023-04-25T17:23:10;12.80;69.00
1091;DHT22;534;48.704;9.122;2023-04-25T17:25:37;12.80;68.50
1091;DHT22;534;48.704;9.122;2023-04-25T17:28:04;12.80;68.50
1091;DHT22;534;48.704;9.122;2023-04-25T17:30:31;12.70;68.30
1091;DHT22;534;48.704;9.122;2023-04-25T17:32:59;12.80;68.70
1091;DHT22;534;48.704;9.122;2023-04-25T17:35:25;12.70;69.30
1091;DHT22;534;48.704;9.122;2023-04-25T17:37:52;12.70;69.40
1091;DHT22;534;48.704;9.122;2023-04-25T17:40:20;12.60;69.30
1091;DHT22;534;48.704;9.122;2023-04-25T17:42:47;12.50;69.70
1091;DHT22;534;48.704;9.122;2023-04-25T17:45:14;12.40;69.80
1091;DHT22;534;48.704;9.122;2023-04-25T17:47:40;12.30;70.40
1091;DHT22;534;48.704;9.122;2023-04-25T17:50:07;12.30;70.40
1091;DHT22;534;48.704;9.122;2023-04-25T17:52:34;12.20;70.70
1091;DHT22;534;48.704;9.122;2023-04-25T17:55:03;12.20;71.10
1091;DHT22;534;48.704;9.122;2023-04-25T17:57:32;12.00;71.70
1091;DHT22;534;48.704;9.122;2023-04-25T17:59:59;11.80;71.80
1091;DHT22;534;48.704;9.122;2023-04-25T18:02:26;11.70;74.20
1091;DHT22;534;48.704;9.122;2023-04-25T18:04:52;11.50;73.00
1091;DHT22;534;48.704;9.122;2023-04-25T18:07:19;11.40;73.30
1091;DHT22;534;48.704;9.122;2023-04-25T18:09:46;11.50;73.40
1091;DHT22;534;48.704;9.122;2023-04-25T18:12:13;11.30;74.20
1091;DHT22;534;48.704;9.122;2023-04-25T18:14:42;11.10;75.00
1091;DHT22;534;48.704;9.122;2023-04-25T18:17:08;11.00;75.50
1091;DHT22;534;48.704;9.122;2023-04-25T18:19:36;10.90;76.00
1091;DHT22;534;48.704;9.122;2023-04-25T18:22:03;10.70;76.70
1091;DHT22;534;48.704;9.122;2023-04-25T18:24:30;10.50;77.30
1091;DHT22;534;48.704;9.122;2023-04-25T18:26:56;10.40;77.90
1091;DHT22;534;48.704;9.122;2023-04-25T18:29:25;10.40;78.00
1091;DHT22;534;48.704;9.122;2023-04-25T18:31:54;10.60;77.90
1091;DHT22;534;48.704;9.122;2023-04-25T18:34:20;10.50;77.60
1091;DHT22;534;48.704;9.122;2023-04-25T18:36:48;10.60;77.60
1091;DHT22;534;48.704;9.122;2023-04-25T18:39:16;10.60;77.60
1091;DHT22;534;48.704;9.122;2023-04-25T18:41:43;10.70;77.40
1091;DHT22;534;48.704;9.122;2023-04-25T18:44:10;10.80;77.30
1091;DHT22;534;48.704;9.122;2023-04-25T18:46:36;10.80;77.20
1091;DHT22;534;48.704;9.122;2023-04-25T18:49:07;10.80;77.40
1091;DHT22;534;48.704;9.122;2023-04-25T18:51:33;10.80;77.20
1091;DHT22;534;48.704;9.122;2023-04-25T18:54:01;10.80;76.80
1091;DHT22;534;48.704;9.122;2023-04-25T18:56:29;10.70;76.90
1091;DHT22;534;48.704;9.122;2023-04-25T18:58:57;10.80;77.00
1091;DHT22;534;48.704;9.122;2023-04-25T19:01:24;10.80;77.10
1091;DHT22;534;48.704;9.122;2023-04-25T19:03:51;10.80;76.80
1091;DHT22;534;48.704;9.122;2023-04-25T19:06:22;10.90;76.60
1091;DHT22;534;48.704;9.122;2023-04-25T19:08:49;10.90;76.40
1091;DHT22;534;48.704;9.122;2023-04-25T19:11:16;11.00;76.40
1091;DHT22;534;48.704;9.122;2023-04-25T19:13:43;10.90;76.10
1091;DHT22;534;48.704;9.122;2023-04-25T19:16:10;11.00;76.00
1091;DHT22;534;48.704;9.122;2023-04-25T19:18:37;11.00;75.80
1091;DHT22;534;48.704;9.122;2023-04-25T19:21:04;11.10;75.50
1091;DHT22;534;48.704;9.122;2023-04-25T19:23:33;11.10;75.10
1091;DHT22;534;48.704;9.122;2023-04-25T19:26:00;11.00;75.10
1091;DHT22;534;48.704;9.122;2023-04-25T19:28:27;11.10;74.80
1091;DHT22;534;48.704;9.122;2023-04-25T19:30:55;11.10;74.90
1091;DHT22;534;48.704;9.122;2023-04-25T19:33:21;11.20;74.60
1091;DHT22;534;48.704;9.122;2023-04-25T19:35:48;11.20;73.60
1091;DHT22;534;48.704;9.122;2023-04-25T19:38:15;11.20;73.70
1091;DHT22;534;48.704;9.122;2023-04-25T19:40:43;11.30;73.60
1091;DHT22;534;48.704;9.122;2023-04-25T19:43:10;11.30;73.50
1091;DHT22;534;48.704;9.122;2023-04-25T19:45:36;11.30;73.20
1091;DHT22;534;48.704;9.122;2023-04-25T19:48:03;11.20;73.00
1091;DHT22;534;48.704;9.122;2023-04-25T19:50:31;11.20;72.90
1091;DHT22;534;48.704;9.122;2023-04-25T19:52:57;11.20;73.20
1091;DHT22;534;48.704;9.122;2023-04-25T19:55:25;11.20;73.20
1091;DHT22;534;48.704;9.122;2023-04-25T19:57:53;11.30;73.30
1091;DHT22;534;48.704;9.122;2023-04-25T20:00:20;11.30;72.60
1091;DHT22;534;48.704;9.122;2023-04-25T20:02:47;11.20;72.70
1091;DHT22;534;48.704;9.122;2023-04-25T20:05:16;11.20;72.50
1091;DHT22;534;48.704;9.122;2023-04-25T20:07:43;11.20;72.60
1091;DHT22;534;48.704;9.122;2023-04-25T20:10:10;11.20;72.50
1091;DHT22;534;48.704;9.122;2023-04-25T20:12:38;11.10;71.80
1091;DHT22;534;48.704;9.122;2023-04-25T20:15:07;11.20;72.00
1091;DHT22;534;48.704;9.122;2023-04-25T20:17:34;11.20;72.00
1091;DHT22;534;48.704;9.122;2023-04-25T20:20:01;11.20;72.20
1091;DHT22;534;48.704;9.122;2023-04-25T20:22:30;11.20;72.40
1091;DHT22;534;48.704;9.122;2023-04-25T20:25:01;11.10;72.10